sensor_id;sensor_type;location;lat;lon;timestamp;temperature;humidity
18426;DHT22;9340;48.756;9.226;2022-09-09T00:00:12;13.40;99.90
18426;DHT22;9340;48.756;9.226;2022-09-09T00:02:42;13.40;99.90
18426;DHT22;9340;48.756;9.226;2022-09-09T00:05:17;13.50;99.90
18426;DHT22;9340;48.756;9.226;2022-09-09T00:07:52;13.50;99.90
18426;DHT22;9340;48.756;9.226;2022-09-09T00:10:23;13.60;99.90
18426;DHT22;9340;48.756;9.226;2022-09-09T00:13:02;13.50;99.90
18426;DHT22;9340;48.756;9.226;2022-09-09T00:15:37;13.50;99.90
18426;DHT22;9340;48.756;9.226;2022-09-09T00:18:13;13.40;99.90
18426;DHT22;9340;48.756;9.226;2022-09-09T00:20:47;13.40;99.90
18426;DHT22;9340;48.756;9.226;2022-09-09T00:23:23;13.40;99.90
18426;DHT22;9340;48.756;9.226;2022-09-09T00:25:58;13.50;99.90
18426;DHT22;9340;48.756;9.226;2022-09-09T00:28:27;13.50;99.90
18426;DHT22;9340;48.756;9.226;2022-09-09T00:31:00;13.60;99.90
18426;DHT22;9340;48.756;9.226;2022-09-09T00:33:30;13.60;99.90
18426;DHT22;9340;48.756;9.226;2022-09-09T00:35:58;13.70;99.90
18426;DHT22;9340;48.756;9.226;2022-09-09T00:38:33;13.70;99.90
18426;DHT22;9340;48.756;9.226;2022-09-09T00:41:04;13.90;99.90
18426;DHT22;9340;48.756;9.226;2022-09-09T00:43:35;13.90;99.90
18426;DHT22;9340;48.756;9.226;2022-09-09T00:46:27;14.00;99.90
18426;DHT22;9340;48.756;9.226;2022-09-09T00:49:04;14.10;99.90
18426;DHT22;9340;48.756;9.226;2022-09-09T00:51:44;14.10;99.90
18426;DHT22;9340;48.756;9.226;2022-09-09T00:54:24;14.20;99.90
18426;DHT22;9340;48.756;9.226;2022-09-09T00:57:03;14.20;99.90
18426;DHT22;9340;48.756;9.226;2022-09-09T00:59:42;14.30;99.90
18426;DHT22;9340;48.756;9.226;2022-09-09T01:02:18;14.40;99.90
18426;DHT22;9340;48.756;9.226;2022-09-09T01:04:48;14.40;99.90
18426;DHT22;9340;48.756;9.226;2022-09-09T01:07:17;14.40;99.90
18426;DHT22;9340;48.756;9.226;2022-09-09T01:09:55;14.50;99.90
18426;DHT22;9340;48.756;9.226;2022-09-09T01:12:32;14.40;99.90
18426;DHT22;9340;48.756;9.226;2022-09-09T01:15:08;14.40;99.90
18426;DHT22;9340;48.756;9.226;2022-09-09T01:17:44;14.50;99.90
18426;DHT22;9340;48.756;9.226;2022-09-09T01:20:15;14.40;99.90
18426;DHT22;9340;48.756;9.226;2022-09-09T01:22:55;14.40;99.90
18426;DHT22;9340;48.756;9.226;2022-09-09T01:28:24;14.20;99.90
18426;DHT22;9340;48.756;9.226;2022-09-09T01:30:51;14.20;99.90
18426;DHT22;9340;48.756;9.226;2022-09-09T01:33:19;14.20;99.90
18426;DHT22;9340;48.756;9.226;2022-09-09T01:35:49;14.20;99.90
18426;DHT22;9340;48.756;9.226;2022-09-09T01:38:19;14.30;99.90
18426;DHT22;9340;48.756;9.226;2022-09-09T01:40:47;14.40;99.90
18426;DHT22;9340;48.756;9.226;2022-09-09T01:43:14;14.40;99.90
18426;DHT22;9340;48.756;9.226;2022-09-09T01:45:43;14.30;99.90
18426;DHT22;9340;48.756;9.226;2022-09-09T01:48:11;14.20;99.90
18426;DHT22;9340;48.756;9.226;2022-09-09T01:50:37;14.10;99.90
18426;DHT22;9340;48.756;9.226;2022-09-09T01:53:04;14.10;99.90
18426;DHT22;9340;48.756;9.226;2022-09-09T01:55:35;14.10;99.90
18426;DHT22;9340;48.756;9.226;2022-09-09T01:58:17;14.00;99.90
18426;DHT22;9340;48.756;9.226;2022-09-09T02:00:55;13.90;99.90
18426;DHT22;9340;48.756;9.226;2022-09-09T02:03:26;13.80;99.90
18426;DHT22;9340;48.756;9.226;2022-09-09T02:06:00;13.70;99.90
18426;DHT22;9340;48.756;9.226;2022-09-09T02:08:38;13.70;99.90
18426;DHT22;9340;48.756;9.226;2022-09-09T02:11:11;13.60;99.90
18426;DHT22;9340;48.756;9.226;2022-09-09T02:13:39;13.40;99.90
18426;DHT22;9340;48.756;9.226;2022-09-09T02:16:12;13.40;99.90
18426;DHT22;9340;48.756;9.226;2022-09-09T02:18:44;13.50;99.90
18426;DHT22;9340;48.756;9.226;2022-09-09T02:21:13;13.40;99.90
18426;DHT22;9340;48.756;9.226;2022-09-09T02:23:42;13.40;99.90
18426;DHT22;9340;48.756;9.226;2022-09-09T02:26:10;13.40;99.90
18426;DHT22;9340;48.756;9.226;2022-09-09T02:28:39;13.30;99.90
18426;DHT22;9340;48.756;9.226;2022-09-09T02:31:08;13.20;99.90
18426;DHT22;9340;48.756;9.226;2022-09-09T02:33:44;13.10;99.90
18426;DHT22;9340;48.756;9.226;2022-09-09T02:36:13;13.00;99.90
18426;DHT22;9340;48.756;9.226;2022-09-09T02:38:45;13.00;99.90
18426;DHT22;9340;48.756;9.226;2022-09-09T02:41:16;13.00;99.90
18426;DHT22;9340;48.756;9.226;2022-09-09T02:43:43;13.00;99.90
18426;DHT22;9340;48.756;9.226;2022-09-09T02:46:26;13.00;99.90
18426;DHT22;9340;48.756;9.226;2022-09-09T02:49:00;12.90;99.90
18426;DHT22;9340;48.756;9.226;2022-09-09T02:51:32;13.00;99.90
18426;DHT22;9340;48.756;9.226;2022-09-09T02:54:06;12.90;99.90
18426;DHT22;9340;48.756;9.226;2022-09-09T02:56:41;12.70;99.90
18426;DHT22;9340;48.756;9.226;2022-09-09T02:59:08;12.70;99.90
18426;DHT22;9340;48.756;9.226;2022-09-09T03:01:36;12.70;99.90
18426;DHT22;9340;48.756;9.226;2022-09-09T03:04:05;12.60;99.90
18426;DHT22;9340;48.756;9.226;2022-09-09T03:06:32;12.60;99.90
18426;DHT22;9340;48.756;9.226;2022-09-09T03:08:58;12.50;99.90
18426;DHT22;9340;48.756;9.226;2022-09-09T03:11:27;12.40;99.90
18426;DHT22;9340;48.756;9.226;2022-09-09T03:13:54;12.40;99.90
18426;DHT22;9340;48.756;9.226;2022-09-09T03:16:21;12.50;99.90
18426;DHT22;9340;48.756;9.226;2022-09-09T03:18:49;12.60;99.90
18426;DHT22;9340;48.756;9.226;2022-09-09T03:21:16;12.70;99.90
18426;DHT22;9340;48.756;9.226;2022-09-09T03:23:43;12.90;99.90
18426;DHT22;9340;48.756;9.226;2022-09-09T03:26:10;12.90;99.90
18426;DHT22;9340;48.756;9.226;2022-09-09T03:28:37;12.80;99.90
18426;DHT22;9340;48.756;9.226;2022-09-09T03:31:05;12.80;99.90
18426;DHT22;9340;48.756;9.226;2022-09-09T03:33:35;12.80;99.90
18426;DHT22;9340;48.756;9.226;2022-09-09T03:36:04;12.70;99.90
18426;DHT22;9340;48.756;9.226;2022-09-09T03:38:31;12.70;99.90
18426;DHT22;9340;48.756;9.226;2022-09-09T03:40:59;12.60;99.90
18426;DHT22;9340;48.756;9.226;2022-09-09T03:43:27;12.60;99.90
18426;DHT22;9340;48.756;9.226;2022-09-09T03:45:54;12.50;99.90
18426;DHT22;9340;48.756;9.226;2022-09-09T03:48:22;12.60;99.90
18426;DHT22;9340;48.756;9.226;2022-09-09T03:50:52;12.70;99.90
18426;DHT22;9340;48.756;9.226;2022-09-09T03:53:21;12.70;99.90
18426;DHT22;9340;48.756;9.226;2022-09-09T03:55:50;12.80;99.90
18426;DHT22;9340;48.756;9.226;2022-09-09T03:58:21;12.90;99.90
18426;DHT22;9340;48.756;9.226;2022-09-09T04:00:54;13.00;99.90
18426;DHT22;9340;48.756;9.226;2022-09-09T04:03:21;13.20;99.90
18426;DHT22;9340;48.756;9.226;2022-09-09T04:05:50;13.20;99.90
18426;DHT22;9340;48.756;9.226;2022-09-09T04:08:16;13.40;99.90
18426;DHT22;9340;48.756;9.226;2022-09-09T04:10:46;13.50;99.90
18426;DHT22;9340;48.756;9.226;2022-09-09T04:13:13;13.60;99.90
18426;DHT22;9340;48.756;9.226;2022-09-09T04:15:42;13.70;99.90
18426;DHT22;9340;48.756;9.226;2022-09-09T04:18:09;13.70;99.90
18426;DHT22;9340;48.756;9.226;2022-09-09T04:20:37;13.70;99.90
18426;DHT22;9340;48.756;9.226;2022-09-09T04:23:04;13.60;99.90
18426;DHT22;9340;48.756;9.226;2022-09-09T04:25:31;13.70;99.90
18426;DHT22;9340;48.756;9.226;2022-09-09T04:28:01;13.70;99.90
18426;DHT22;9340;48.756;9.226;2022-09-09T04:30:28;13.70;99.90
18426;DHT22;9340;48.756;9.226;2022-09-09T04:32:55;13.80;99.90
18426;DHT22;9340;48.756;9.226;2022-09-09T04:35:22;13.90;99.90
18426;DHT22;9340;48.756;9.226;2022-09-09T04:37:49;14.00;99.90
18426;DHT22;9340;48.756;9.226;2022-09-09T04:40:16;14.10;99.90
18426;DHT22;9340;48.756;9.226;2022-09-09T04:42:42;14.10;99.90
18426;DHT22;9340;48.756;9.226;2022-09-09T04:45:11;14.30;99.90
18426;DHT22;9340;48.756;9.226;2022-09-09T04:47:39;14.40;99.90
18426;DHT22;9340;48.756;9.226;2022-09-09T04:50:07;14.40;99.90
18426;DHT22;9340;48.756;9.226;2022-09-09T04:52:34;14.50;99.90
18426;DHT22;9340;48.756;9.226;2022-09-09T04:55:00;14.50;99.90
18426;DHT22;9340;48.756;9.226;2022-09-09T04:57:27;14.40;99.90
18426;DHT22;9340;48.756;9.226;2022-09-09T04:59:54;14.40;99.90
18426;DHT22;9340;48.756;9.226;2022-09-09T05:02:22;14.40;99.90
18426;DHT22;9340;48.756;9.226;2022-09-09T05:04:48;14.30;99.90
18426;DHT22;9340;48.756;9.226;2022-09-09T05:07:15;14.20;99.90
18426;DHT22;9340;48.756;9.226;2022-09-09T05:09:42;14.00;99.90
18426;DHT22;9340;48.756;9.226;2022-09-09T05:12:10;14.00;99.90
18426;DHT22;9340;48.756;9.226;2022-09-09T05:14:37;13.90;99.90
18426;DHT22;9340;48.756;9.226;2022-09-09T05:17:04;14.00;99.90
18426;DHT22;9340;48.756;9.226;2022-09-09T05:19:32;13.90;99.90
18426;DHT22;9340;48.756;9.226;2022-09-09T05:21:59;13.90;99.90
18426;DHT22;9340;48.756;9.226;2022-09-09T05:24:26;14.00;99.90
18426;DHT22;9340;48.756;9.226;2022-09-09T05:26:53;14.00;99.90
18426;DHT22;9340;48.756;9.226;2022-09-09T05:29:21;14.10;99.90
18426;DHT22;9340;48.756;9.226;2022-09-09T05:31:48;14.30;99.90
18426;DHT22;9340;48.756;9.226;2022-09-09T05:34:14;14.30;99.90
18426;DHT22;9340;48.756;9.226;2022-09-09T05:36:42;14.40;99.90
18426;DHT22;9340;48.756;9.226;2022-09-09T05:39:09;14.50;99.90
18426;DHT22;9340;48.756;9.226;2022-09-09T05:41:37;14.40;99.90
18426;DHT22;9340;48.756;9.226;2022-09-09T05:44:04;14.50;99.90
18426;DHT22;9340;48.756;9.226;2022-09-09T05:46:31;14.60;99.90
18426;DHT22;9340;48.756;9.226;2022-09-09T05:48:58;14.50;99.90
18426;DHT22;9340;48.756;9.226;2022-09-09T05:51:28;14.60;99.90
18426;DHT22;9340;48.756;9.226;2022-09-09T05:53:57;14.70;99.90
18426;DHT22;9340;48.756;9.226;2022-09-09T05:56:25;14.80;99.90
18426;DHT22;9340;48.756;9.226;2022-09-09T05:58:53;14.80;99.90
18426;DHT22;9340;48.756;9.226;2022-09-09T06:01:22;15.00;99.90
18426;DHT22;9340;48.756;9.226;2022-09-09T06:03:50;15.00;99.90
18426;DHT22;9340;48.756;9.226;2022-09-09T06:06:19;15.00;99.90
18426;DHT22;9340;48.756;9.226;2022-09-09T06:08:47;15.20;99.90
18426;DHT22;9340;48.756;9.226;2022-09-09T06:11:17;15.20;99.90
18426;DHT22;9340;48.756;9.226;2022-09-09T06:13:45;15.40;99.90
18426;DHT22;9340;48.756;9.226;2022-09-09T06:16:14;15.50;99.90
18426;DHT22;9340;48.756;9.226;2022-09-09T06:18:42;15.60;99.90
18426;DHT22;9340;48.756;9.226;2022-09-09T06:21:13;15.70;99.90
18426;DHT22;9340;48.756;9.226;2022-09-09T06:23:41;15.90;99.90
18426;DHT22;9340;48.756;9.226;2022-09-09T06:26:11;16.00;99.90
18426;DHT22;9340;48.756;9.226;2022-09-09T06:28:40;16.00;99.90
18426;DHT22;9340;48.756;9.226;2022-09-09T06:31:10;16.10;99.90
18426;DHT22;9340;48.756;9.226;2022-09-09T06:33:38;16.20;99.90
18426;DHT22;9340;48.756;9.226;2022-09-09T06:36:07;16.30;99.90
18426;DHT22;9340;48.756;9.226;2022-09-09T06:38:34;16.40;99.90
18426;DHT22;9340;48.756;9.226;2022-09-09T06:41:00;16.50;99.90
18426;DHT22;9340;48.756;9.226;2022-09-09T06:43:28;16.60;99.90
18426;DHT22;9340;48.756;9.226;2022-09-09T06:45:58;16.70;99.90
18426;DHT22;9340;48.756;9.226;2022-09-09T06:48:25;16.80;99.90
18426;DHT22;9340;48.756;9.226;2022-09-09T06:51:00;16.90;99.90
18426;DHT22;9340;48.756;9.226;2022-09-09T06:53:28;17.10;99.90
18426;DHT22;9340;48.756;9.226;2022-09-09T06:55:55;17.20;99.90
18426;DHT22;9340;48.756;9.226;2022-09-09T06:58:21;17.30;99.90
18426;DHT22;9340;48.756;9.226;2022-09-09T07:00:48;17.40;99.90
18426;DHT22;9340;48.756;9.226;2022-09-09T07:03:16;17.60;99.90
18426;DHT22;9340;48.756;9.226;2022-09-09T07:05:43;17.60;99.90
18426;DHT22;9340;48.756;9.226;2022-09-09T07:08:10;17.80;99.90
18426;DHT22;9340;48.756;9.226;2022-09-09T07:10:37;17.90;99.90
18426;DHT22;9340;48.756;9.226;2022-09-09T07:13:04;18.00;99.90
18426;DHT22;9340;48.756;9.226;2022-09-09T07:15:31;18.10;99.90
18426;DHT22;9340;48.756;9.226;2022-09-09T07:18:01;18.30;99.90
18426;DHT22;9340;48.756;9.226;2022-09-09T07:20:29;18.40;99.90
18426;DHT22;9340;48.756;9.226;2022-09-09T07:22:56;18.50;99.90
18426;DHT22;9340;48.756;9.226;2022-09-09T07:25:24;18.70;99.90
18426;DHT22;9340;48.756;9.226;2022-09-09T07:27:52;19.00;99.90
18426;DHT22;9340;48.756;9.226;2022-09-09T07:30:18;19.20;99.90
18426;DHT22;9340;48.756;9.226;2022-09-09T07:32:45;19.40;99.90
18426;DHT22;9340;48.756;9.226;2022-09-09T07:35:12;19.60;99.90
18426;DHT22;9340;48.756;9.226;2022-09-09T07:37:40;19.30;99.90
18426;DHT22;9340;48.756;9.226;2022-09-09T07:40:07;19.00;99.90
18426;DHT22;9340;48.756;9.226;2022-09-09T07:42:34;19.00;99.90
18426;DHT22;9340;48.756;9.226;2022-09-09T07:45:00;19.10;99.90
18426;DHT22;9340;48.756;9.226;2022-09-09T07:47:27;19.00;99.90
18426;DHT22;9340;48.756;9.226;2022-09-09T07:49:54;19.00;99.90
18426;DHT22;9340;48.756;9.226;2022-09-09T07:52:21;18.70;99.90
18426;DHT22;9340;48.756;9.226;2022-09-09T07:54:49;18.90;99.90
18426;DHT22;9340;48.756;9.226;2022-09-09T07:57:16;19.20;99.90
18426;DHT22;9340;48.756;9.226;2022-09-09T07:59:42;19.40;99.90
18426;DHT22;9340;48.756;9.226;2022-09-09T08:02:12;19.50;99.90
18426;DHT22;9340;48.756;9.226;2022-09-09T08:04:38;19.50;99.90
18426;DHT22;9340;48.756;9.226;2022-09-09T08:07:05;19.40;99.90
18426;DHT22;9340;48.756;9.226;2022-09-09T08:09:32;19.30;99.90
18426;DHT22;9340;48.756;9.226;2022-09-09T08:12:00;19.40;99.90
18426;DHT22;9340;48.756;9.226;2022-09-09T08:14:27;19.40;99.90
18426;DHT22;9340;48.756;9.226;2022-09-09T08:16:55;19.40;99.90
18426;DHT22;9340;48.756;9.226;2022-09-09T08:19:22;19.30;99.90
18426;DHT22;9340;48.756;9.226;2022-09-09T08:21:49;19.30;99.90
18426;DHT22;9340;48.756;9.226;2022-09-09T08:24:16;19.30;99.90
18426;DHT22;9340;48.756;9.226;2022-09-09T08:26:46;19.40;99.90
18426;DHT22;9340;48.756;9.226;2022-09-09T08:29:16;19.40;99.90
18426;DHT22;9340;48.756;9.226;2022-09-09T08:31:44;19.40;99.90
18426;DHT22;9340;48.756;9.226;2022-09-09T08:34:12;19.50;99.90
18426;DHT22;9340;48.756;9.226;2022-09-09T08:36:40;19.50;99.90
18426;DHT22;9340;48.756;9.226;2022-09-09T08:39:09;19.60;99.90
18426;DHT22;9340;48.756;9.226;2022-09-09T08:41:49;19.60;99.90
18426;DHT22;9340;48.756;9.226;2022-09-09T08:44:30;19.70;99.90
18426;DHT22;9340;48.756;9.226;2022-09-09T08:47:04;19.90;99.90
18426;DHT22;9340;48.756;9.226;2022-09-09T08:50:02;20.10;99.90
18426;DHT22;9340;48.756;9.226;2022-09-09T08:52:38;20.20;99.90
18426;DHT22;9340;48.756;9.226;2022-09-09T08:55:20;20.30;99.90
18426;DHT22;9340;48.756;9.226;2022-09-09T08:57:48;20.40;99.90
18426;DHT22;9340;48.756;9.226;2022-09-09T09:00:18;20.60;99.90
18426;DHT22;9340;48.756;9.226;2022-09-09T09:02:49;20.70;99.90
18426;DHT22;9340;48.756;9.226;2022-09-09T09:05:23;20.80;99.90
18426;DHT22;9340;48.756;9.226;2022-09-09T09:07:59;20.90;99.90
18426;DHT22;9340;48.756;9.226;2022-09-09T09:10:42;21.00;99.90
18426;DHT22;9340;48.756;9.226;2022-09-09T09:13:14;21.10;99.90
18426;DHT22;9340;48.756;9.226;2022-09-09T09:15:44;21.10;99.90
18426;DHT22;9340;48.756;9.226;2022-09-09T09:18:13;21.40;99.90
18426;DHT22;9340;48.756;9.226;2022-09-09T09:20:49;21.80;99.90
18426;DHT22;9340;48.756;9.226;2022-09-09T09:23:22;22.10;99.90
18426;DHT22;9340;48.756;9.226;2022-09-09T09:25:50;22.40;99.90
18426;DHT22;9340;48.756;9.226;2022-09-09T09:28:21;22.50;99.90
18426;DHT22;9340;48.756;9.226;2022-09-09T09:30:54;22.40;99.90
18426;DHT22;9340;48.756;9.226;2022-09-09T09:33:26;22.00;99.90
18426;DHT22;9340;48.756;9.226;2022-09-09T09:35:54;21.40;99.90
18426;DHT22;9340;48.756;9.226;2022-09-09T09:38:22;21.00;99.90
18426;DHT22;9340;48.756;9.226;2022-09-09T09:40:51;20.00;99.90
18426;DHT22;9340;48.756;9.226;2022-09-09T09:43:23;19.50;99.90
18426;DHT22;9340;48.756;9.226;2022-09-09T09:45:51;19.40;99.90
18426;DHT22;9340;48.756;9.226;2022-09-09T09:48:18;19.50;99.90
18426;DHT22;9340;48.756;9.226;2022-09-09T09:50:50;19.70;99.90
18426;DHT22;9340;48.756;9.226;2022-09-09T09:53:21;19.70;99.90
18426;DHT22;9340;48.756;9.226;2022-09-09T09:55:55;19.70;99.90
18426;DHT22;9340;48.756;9.226;2022-09-09T09:58:23;19.50;99.90
18426;DHT22;9340;48.756;9.226;2022-09-09T10:00:53;19.50;99.90
18426;DHT22;9340;48.756;9.226;2022-09-09T10:03:24;19.30;99.90
18426;DHT22;9340;48.756;9.226;2022-09-09T10:05:51;19.30;99.90
18426;DHT22;9340;48.756;9.226;2022-09-09T10:08:18;19.30;99.90
18426;DHT22;9340;48.756;9.226;2022-09-09T10:10:59;19.40;99.90
18426;DHT22;9340;48.756;9.226;2022-09-09T10:13:31;19.50;99.90
18426;DHT22;9340;48.756;9.226;2022-09-09T10:16:12;19.70;99.90
18426;DHT22;9340;48.756;9.226;2022-09-09T10:18:49;19.80;99.90
18426;DHT22;9340;48.756;9.226;2022-09-09T10:21:31;20.00;99.90
18426;DHT22;9340;48.756;9.226;2022-09-09T10:24:20;20.10;99.90
18426;DHT22;9340;48.756;9.226;2022-09-09T10:26:53;20.20;99.90
18426;DHT22;9340;48.756;9.226;2022-09-09T10:29:37;20.20;99.90
18426;DHT22;9340;48.756;9.226;2022-09-09T10:32:22;20.30;99.90
18426;DHT22;9340;48.756;9.226;2022-09-09T10:35:02;20.40;99.90
18426;DHT22;9340;48.756;9.226;2022-09-09T10:37:40;20.50;99.90
18426;DHT22;9340;48.756;9.226;2022-09-09T10:40:21;20.70;99.90
18426;DHT22;9340;48.756;9.226;2022-09-09T10:42:51;20.80;99.90
18426;DHT22;9340;48.756;9.226;2022-09-09T10:45:25;20.90;99.90
18426;DHT22;9340;48.756;9.226;2022-09-09T10:48:09;20.90;99.90
18426;DHT22;9340;48.756;9.226;2022-09-09T10:50:46;21.10;99.90
18426;DHT22;9340;48.756;9.226;2022-09-09T10:53:24;21.60;99.90
18426;DHT22;9340;48.756;9.226;2022-09-09T10:55:59;22.00;99.90
18426;DHT22;9340;48.756;9.226;2022-09-09T10:58:30;22.30;99.90
18426;DHT22;9340;48.756;9.226;2022-09-09T11:01:03;22.60;99.90
18426;DHT22;9340;48.756;9.226;2022-09-09T11:03:38;22.90;99.90
18426;DHT22;9340;48.756;9.226;2022-09-09T11:06:12;23.10;99.90
18426;DHT22;9340;48.756;9.226;2022-09-09T11:08:40;23.30;99.90
18426;DHT22;9340;48.756;9.226;2022-09-09T11:11:09;23.30;99.90
18426;DHT22;9340;48.756;9.226;2022-09-09T11:13:42;23.30;99.90
18426;DHT22;9340;48.756;9.226;2022-09-09T11:16:21;23.20;99.90
18426;DHT22;9340;48.756;9.226;2022-09-09T11:18:56;23.10;99.90
18426;DHT22;9340;48.756;9.226;2022-09-09T11:21:28;23.50;99.90
18426;DHT22;9340;48.756;9.226;2022-09-09T11:23:59;23.70;99.90
18426;DHT22;9340;48.756;9.226;2022-09-09T11:26:31;24.00;99.90
18426;DHT22;9340;48.756;9.226;2022-09-09T11:29:13;24.40;99.90
18426;DHT22;9340;48.756;9.226;2022-09-09T11:31:57;24.40;99.90
18426;DHT22;9340;48.756;9.226;2022-09-09T11:34:43;23.90;99.90
18426;DHT22;9340;48.756;9.226;2022-09-09T11:37:26;23.60;99.90
18426;DHT22;9340;48.756;9.226;2022-09-09T11:40:14;22.90;99.90
18426;DHT22;9340;48.756;9.226;2022-09-09T11:42:42;22.10;99.90
18426;DHT22;9340;48.756;9.226;2022-09-09T11:45:15;22.10;99.90
18426;DHT22;9340;48.756;9.226;2022-09-09T11:47:52;22.30;99.90
18426;DHT22;9340;48.756;9.226;2022-09-09T11:50:35;22.40;99.90
18426;DHT22;9340;48.756;9.226;2022-09-09T11:53:21;22.60;99.90
18426;DHT22;9340;48.756;9.226;2022-09-09T11:56:03;22.70;99.90
18426;DHT22;9340;48.756;9.226;2022-09-09T11:58:36;22.70;99.90
18426;DHT22;9340;48.756;9.226;2022-09-09T12:01:25;22.70;99.90
18426;DHT22;9340;48.756;9.226;2022-09-09T12:06:51;22.80;99.90
18426;DHT22;9340;48.756;9.226;2022-09-09T12:09:23;23.20;99.90
18426;DHT22;9340;48.756;9.226;2022-09-09T12:11:51;23.00;99.90
18426;DHT22;9340;48.756;9.226;2022-09-09T12:14:23;23.00;99.90
18426;DHT22;9340;48.756;9.226;2022-09-09T12:17:09;22.90;99.90
18426;DHT22;9340;48.756;9.226;2022-09-09T12:19:36;22.80;99.90
18426;DHT22;9340;48.756;9.226;2022-09-09T12:22:07;22.80;99.90
18426;DHT22;9340;48.756;9.226;2022-09-09T12:24:43;22.80;99.90
18426;DHT22;9340;48.756;9.226;2022-09-09T12:27:18;22.60;99.90
18426;DHT22;9340;48.756;9.226;2022-09-09T12:29:51;22.60;99.90
18426;DHT22;9340;48.756;9.226;2022-09-09T12:32:23;22.60;99.90
18426;DHT22;9340;48.756;9.226;2022-09-09T12:34:53;22.60;99.90
18426;DHT22;9340;48.756;9.226;2022-09-09T12:37:31;22.60;99.90
18426;DHT22;9340;48.756;9.226;2022-09-09T12:40:01;22.70;99.90
18426;DHT22;9340;48.756;9.226;2022-09-09T12:42:30;22.60;99.90
18426;DHT22;9340;48.756;9.226;2022-09-09T12:44:59;22.70;99.90
18426;DHT22;9340;48.756;9.226;2022-09-09T12:47:35;22.90;99.90
18426;DHT22;9340;48.756;9.226;2022-09-09T12:50:04;23.00;99.90
18426;DHT22;9340;48.756;9.226;2022-09-09T12:52:35;23.10;99.90
18426;DHT22;9340;48.756;9.226;2022-09-09T12:55:05;23.30;99.90
18426;DHT22;9340;48.756;9.226;2022-09-09T12:57:37;23.60;99.90
18426;DHT22;9340;48.756;9.226;2022-09-09T13:00:10;23.90;99.90
18426;DHT22;9340;48.756;9.226;2022-09-09T13:02:46;24.30;99.90
18426;DHT22;9340;48.756;9.226;2022-09-09T13:05:15;24.40;99.90
18426;DHT22;9340;48.756;9.226;2022-09-09T13:07:44;24.30;99.90
18426;DHT22;9340;48.756;9.226;2022-09-09T13:10:14;24.20;99.90
18426;DHT22;9340;48.756;9.226;2022-09-09T13:12:42;23.90;99.90
18426;DHT22;9340;48.756;9.226;2022-09-09T13:15:19;23.40;99.90
18426;DHT22;9340;48.756;9.226;2022-09-09T13:17:51;23.20;99.90
18426;DHT22;9340;48.756;9.226;2022-09-09T13:20:20;23.30;99.90
18426;DHT22;9340;48.756;9.226;2022-09-09T13:22:49;23.60;99.90
18426;DHT22;9340;48.756;9.226;2022-09-09T13:25:20;23.80;99.90
18426;DHT22;9340;48.756;9.226;2022-09-09T13:27:56;24.00;99.90
18426;DHT22;9340;48.756;9.226;2022-09-09T13:30:25;24.10;99.90
18426;DHT22;9340;48.756;9.226;2022-09-09T13:33:17;24.50;99.90
18426;DHT22;9340;48.756;9.226;2022-09-09T13:35:48;24.80;99.90
18426;DHT22;9340;48.756;9.226;2022-09-09T13:38:17;25.00;99.90
18426;DHT22;9340;48.756;9.226;2022-09-09T13:40:53;24.80;99.90
18426;DHT22;9340;48.756;9.226;2022-09-09T13:43:22;24.60;99.90
18426;DHT22;9340;48.756;9.226;2022-09-09T13:45:53;24.40;99.90
18426;DHT22;9340;48.756;9.226;2022-09-09T13:48:21;24.10;99.90
18426;DHT22;9340;48.756;9.226;2022-09-09T13:50:55;23.90;99.90
18426;DHT22;9340;48.756;9.226;2022-09-09T13:53:23;23.60;99.90
18426;DHT22;9340;48.756;9.226;2022-09-09T13:55:50;23.30;99.90
18426;DHT22;9340;48.756;9.226;2022-09-09T13:58:17;23.40;99.90
18426;DHT22;9340;48.756;9.226;2022-09-09T14:00:45;23.60;99.90
18426;DHT22;9340;48.756;9.226;2022-09-09T14:03:12;24.00;99.90
18426;DHT22;9340;48.756;9.226;2022-09-09T14:05:39;24.40;99.90
18426;DHT22;9340;48.756;9.226;2022-09-09T14:08:06;24.50;99.90
18426;DHT22;9340;48.756;9.226;2022-09-09T14:10:34;24.60;99.90
18426;DHT22;9340;48.756;9.226;2022-09-09T14:13:02;24.50;99.90
18426;DHT22;9340;48.756;9.226;2022-09-09T14:15:29;24.20;99.90
18426;DHT22;9340;48.756;9.226;2022-09-09T14:17:55;24.00;99.90
18426;DHT22;9340;48.756;9.226;2022-09-09T14:20:24;23.90;99.90
18426;DHT22;9340;48.756;9.226;2022-09-09T14:22:51;23.90;99.90
18426;DHT22;9340;48.756;9.226;2022-09-09T14:25:18;23.80;99.90
18426;DHT22;9340;48.756;9.226;2022-09-09T14:27:46;23.70;99.90
18426;DHT22;9340;48.756;9.226;2022-09-09T14:30:13;23.50;99.90
18426;DHT22;9340;48.756;9.226;2022-09-09T14:32:40;23.40;99.90
18426;DHT22;9340;48.756;9.226;2022-09-09T14:35:07;23.40;99.90
18426;DHT22;9340;48.756;9.226;2022-09-09T14:37:34;23.40;99.90
18426;DHT22;9340;48.756;9.226;2022-09-09T14:40:01;23.40;99.90
18426;DHT22;9340;48.756;9.226;2022-09-09T14:42:28;23.50;99.90
18426;DHT22;9340;48.756;9.226;2022-09-09T14:44:57;23.50;99.90
18426;DHT22;9340;48.756;9.226;2022-09-09T14:47:23;23.30;99.90
18426;DHT22;9340;48.756;9.226;2022-09-09T14:49:51;23.40;99.90
18426;DHT22;9340;48.756;9.226;2022-09-09T14:52:18;23.40;99.90
18426;DHT22;9340;48.756;9.226;2022-09-09T14:54:45;23.60;99.90
18426;DHT22;9340;48.756;9.226;2022-09-09T14:57:12;23.60;99.90
18426;DHT22;9340;48.756;9.226;2022-09-09T14:59:39;23.70;99.90
18426;DHT22;9340;48.756;9.226;2022-09-09T15:02:08;23.70;99.90
18426;DHT22;9340;48.756;9.226;2022-09-09T15:04:35;23.70;99.90
18426;DHT22;9340;48.756;9.226;2022-09-09T15:07:01;23.60;99.90
18426;DHT22;9340;48.756;9.226;2022-09-09T15:09:28;23.60;99.90
18426;DHT22;9340;48.756;9.226;2022-09-09T15:11:55;23.60;99.90
18426;DHT22;9340;48.756;9.226;2022-09-09T15:14:22;23.60;99.90
18426;DHT22;9340;48.756;9.226;2022-09-09T15:16:48;23.60;99.90
18426;DHT22;9340;48.756;9.226;2022-09-09T15:19:16;23.40;99.90
18426;DHT22;9340;48.756;9.226;2022-09-09T15:21:43;23.20;99.90
18426;DHT22;9340;48.756;9.226;2022-09-09T15:24:10;22.90;99.90
18426;DHT22;9340;48.756;9.226;2022-09-09T15:26:39;22.70;99.90
18426;DHT22;9340;48.756;9.226;2022-09-09T15:29:06;22.70;99.90
18426;DHT22;9340;48.756;9.226;2022-09-09T15:31:34;22.60;99.90
18426;DHT22;9340;48.756;9.226;2022-09-09T15:34:02;22.70;99.90
18426;DHT22;9340;48.756;9.226;2022-09-09T15:36:32;22.60;99.90
18426;DHT22;9340;48.756;9.226;2022-09-09T15:39:00;22.60;99.90
18426;DHT22;9340;48.756;9.226;2022-09-09T15:41:27;22.80;99.90
18426;DHT22;9340;48.756;9.226;2022-09-09T15:43:56;22.90;99.90
18426;DHT22;9340;48.756;9.226;2022-09-09T15:46:26;23.00;99.90
18426;DHT22;9340;48.756;9.226;2022-09-09T15:48:54;23.00;99.90
18426;DHT22;9340;48.756;9.226;2022-09-09T15:51:22;22.80;99.90
18426;DHT22;9340;48.756;9.226;2022-09-09T15:53:53;22.50;99.90
18426;DHT22;9340;48.756;9.226;2022-09-09T15:56:20;22.30;99.90
18426;DHT22;9340;48.756;9.226;2022-09-09T15:58:47;22.10;99.90
18426;DHT22;9340;48.756;9.226;2022-09-09T16:01:14;21.90;99.90
18426;DHT22;9340;48.756;9.226;2022-09-09T16:03:42;21.80;99.90
18426;DHT22;9340;48.756;9.226;2022-09-09T16:06:11;21.60;99.90
18426;DHT22;9340;48.756;9.226;2022-09-09T16:08:40;21.50;99.90
18426;DHT22;9340;48.756;9.226;2022-09-09T16:11:09;21.40;99.90